KGSP/GSP METAR and TAF weather

Enter ICAO airport designator
Station Type Date Time Source
KGSP METAR 2020/07/11 16:53 UTC NOAA

KGSP 111653Z VRB06KT 10SM CLR 31/18 A2991 RMK AO2 SLP116 T03110183


Station Type Date Time Source
KGSP Decoded METAR 2020/07/11 16:53 UTC NOAA

GREER GREENVILLE SPARTBURG, SC, United States (KGSP) 34-53N 82-13W 286M
Jul 11, 2020 - 12:53 PM EDT / 2020.07.11 1653 UTC
Wind: Variable at 7 MPH (6 KT):0
Visibility: 10 mile(s):0
Sky conditions: clear
Temperature: 88.0 F (31.1 C)
Dew Point: 64.9 F (18.3 C)
Relative Humidity: 46%
Pressure (altimeter): 29.91 in. Hg (1012 hPa)
ob: KGSP 111653Z VRB06KT 10SM CLR 31/18 A2991 RMK AO2 SLP116 T03110183
cycle: 17

Station Type Date Time Source
KGSP TAF 2020/07/11 12:27 UTC NOAA

TAF KGSP 111125Z 1112/1212 35003KT P6SM SKC
FM112000 30007KT P6SM FEW050
FM120100 36005KT P6SM SKC

Example: see airport list